sensor_id;sensor_type;location;lat;lon;timestamp;pressure;altitude;pressure_sealevel;temperature;humidity
6216;BME280;3141;49.234;9.326;2023-10-09T00:00:06;100265.41;;;15.08;82.58
6216;BME280;3141;49.234;9.326;2023-10-09T00:01:12;100269.03;;;15.07;82.22
6216;BME280;3141;49.234;9.326;2023-10-09T00:01:59;100263.41;;;15.02;82.29
6216;BME280;3141;49.234;9.326;2023-10-09T00:02:41;100265.72;;;15.05;82.17
6216;BME280;3141;49.234;9.326;2023-10-09T00:03:25;100255.41;;;15.02;82.08
6216;BME280;3141;49.234;9.326;2023-10-09T00:04:10;100264.75;;;15.06;82.25
6216;BME280;3141;49.234;9.326;2023-10-09T00:04:53;100258.88;;;15.11;81.93
6216;BME280;3141;49.234;9.326;2023-10-09T00:05:39;100266.69;;;15.12;81.84
6216;BME280;3141;49.234;9.326;2023-10-09T00:06:27;100260.41;;;15.13;81.89
6216;BME280;3141;49.234;9.326;2023-10-09T00:07:21;100258.22;;;15.08;81.92
6216;BME280;3141;49.234;9.326;2023-10-09T00:08:05;100262.56;;;15.10;81.96
6216;BME280;3141;49.234;9.326;2023-10-09T00:08:47;100260.88;;;15.08;82.10
6216;BME280;3141;49.234;9.326;2023-10-09T00:09:35;100265.72;;;15.05;82.64
6216;BME280;3141;49.234;9.326;2023-10-09T00:10:30;100271.09;;;14.89;83.43
6216;BME280;3141;49.234;9.326;2023-10-09T00:11:31;100262.13;;;14.82;84.07
6216;BME280;3141;49.234;9.326;2023-10-09T00:12:20;100271.59;;;14.84;83.83
6216;BME280;3141;49.234;9.326;2023-10-09T00:13:07;100263.91;;;14.89;83.47
6216;BME280;3141;49.234;9.326;2023-10-09T00:13:52;100266.41;;;14.91;83.40
6216;BME280;3141;49.234;9.326;2023-10-09T00:14:39;100259.47;;;14.82;83.85
6216;BME280;3141;49.234;9.326;2023-10-09T00:15:22;100265.44;;;14.76;84.17
6216;BME280;3141;49.234;9.326;2023-10-09T00:16:05;100266.28;;;14.76;84.37
6216;BME280;3141;49.234;9.326;2023-10-09T00:16:57;100258.94;;;14.86;83.88
6216;BME280;3141;49.234;9.326;2023-10-09T00:17:54;100260.94;;;14.92;83.08
6216;BME280;3141;49.234;9.326;2023-10-09T00:18:41;100260.91;;;15.00;82.59
6216;BME280;3141;49.234;9.326;2023-10-09T00:19:29;100257.94;;;14.95;82.28
6216;BME280;3141;49.234;9.326;2023-10-09T00:20:15;100260.06;;;15.00;82.06
6216;BME280;3141;49.234;9.326;2023-10-09T00:21:02;100251.78;;;14.87;82.32
6216;BME280;3141;49.234;9.326;2023-10-09T00:21:54;100257.09;;;14.79;82.62
6216;BME280;3141;49.234;9.326;2023-10-09T00:22:37;100256.78;;;14.82;82.82
6216;BME280;3141;49.234;9.326;2023-10-09T00:23:27;100255.63;;;14.76;83.17
6216;BME280;3141;49.234;9.326;2023-10-09T00:24:10;100254.97;;;14.74;82.96
6216;BME280;3141;49.234;9.326;2023-10-09T00:24:58;100246.97;;;14.74;83.18
6216;BME280;3141;49.234;9.326;2023-10-09T00:25:52;100247.47;;;14.62;83.91
6216;BME280;3141;49.234;9.326;2023-10-09T00:26:51;100243.50;;;14.50;84.71
6216;BME280;3141;49.234;9.326;2023-10-09T00:27:34;100251.97;;;14.53;84.66
6216;BME280;3141;49.234;9.326;2023-10-09T00:28:18;100242.50;;;14.59;84.13
6216;BME280;3141;49.234;9.326;2023-10-09T00:29:03;100241.66;;;14.58;84.65
6216;BME280;3141;49.234;9.326;2023-10-09T00:29:47;100244.19;;;14.60;83.88
6216;BME280;3141;49.234;9.326;2023-10-09T00:30:31;100243.31;;;14.67;83.62
6216;BME280;3141;49.234;9.326;2023-10-09T00:31:14;100247.16;;;14.65;83.42
6216;BME280;3141;49.234;9.326;2023-10-09T00:32:08;100235.19;;;14.61;83.49
6216;BME280;3141;49.234;9.326;2023-10-09T00:33:08;100242.19;;;14.70;83.33
6216;BME280;3141;49.234;9.326;2023-10-09T00:33:52;100240.84;;;14.58;83.69
6216;BME280;3141;49.234;9.326;2023-10-09T00:34:36;100244.50;;;14.57;83.88
6216;BME280;3141;49.234;9.326;2023-10-09T00:35:21;100237.53;;;14.56;83.96
6216;BME280;3141;49.234;9.326;2023-10-09T00:36:18;100241.53;;;14.60;83.60
6216;BME280;3141;49.234;9.326;2023-10-09T00:37:11;100236.03;;;14.53;83.62
6216;BME280;3141;49.234;9.326;2023-10-09T00:37:58;100238.88;;;14.44;84.51
6216;BME280;3141;49.234;9.326;2023-10-09T00:38:48;100240.88;;;14.34;85.26
6216;BME280;3141;49.234;9.326;2023-10-09T00:39:32;100234.19;;;14.38;85.08
6216;BME280;3141;49.234;9.326;2023-10-09T00:40:20;100235.53;;;14.42;84.86
6216;BME280;3141;49.234;9.326;2023-10-09T00:41:05;100240.53;;;14.37;85.38
6216;BME280;3141;49.234;9.326;2023-10-09T00:41:51;100239.22;;;14.41;85.26
6216;BME280;3141;49.234;9.326;2023-10-09T00:42:33;100227.22;;;14.53;84.60
6216;BME280;3141;49.234;9.326;2023-10-09T00:43:18;100232.53;;;14.61;83.86
6216;BME280;3141;49.234;9.326;2023-10-09T00:44:01;100233.84;;;14.57;84.01
6216;BME280;3141;49.234;9.326;2023-10-09T00:44:49;100232.84;;;14.66;83.74
6216;BME280;3141;49.234;9.326;2023-10-09T00:45:32;100235.66;;;14.72;83.09
6216;BME280;3141;49.234;9.326;2023-10-09T00:46:21;100232.34;;;14.62;83.06
6216;BME280;3141;49.234;9.326;2023-10-09T00:47:05;100236.19;;;14.60;83.04
6216;BME280;3141;49.234;9.326;2023-10-09T00:48:02;100231.88;;;14.59;83.54
6216;BME280;3141;49.234;9.326;2023-10-09T00:49:04;100237.69;;;14.62;83.29
6216;BME280;3141;49.234;9.326;2023-10-09T00:50:02;100235.53;;;14.58;83.99
6216;BME280;3141;49.234;9.326;2023-10-09T00:50:58;100225.69;;;14.58;83.55
6216;BME280;3141;49.234;9.326;2023-10-09T00:51:48;100232.50;;;14.69;83.48
6216;BME280;3141;49.234;9.326;2023-10-09T00:52:38;100230.88;;;14.68;83.12
6216;BME280;3141;49.234;9.326;2023-10-09T00:53:32;100227.88;;;14.63;83.65
6216;BME280;3141;49.234;9.326;2023-10-09T00:54:15;100225.22;;;14.63;83.78
6216;BME280;3141;49.234;9.326;2023-10-09T00:54:59;100223.38;;;14.63;83.48
6216;BME280;3141;49.234;9.326;2023-10-09T00:55:43;100230.03;;;14.67;83.48
6216;BME280;3141;49.234;9.326;2023-10-09T00:56:37;100229.88;;;14.61;84.29
6216;BME280;3141;49.234;9.326;2023-10-09T00:57:29;100232.19;;;14.64;84.33
6216;BME280;3141;49.234;9.326;2023-10-09T00:58:14;100229.19;;;14.67;84.11
6216;BME280;3141;49.234;9.326;2023-10-09T00:58:58;100228.38;;;14.58;84.42
6216;BME280;3141;49.234;9.326;2023-10-09T00:59:53;100231.19;;;14.57;84.79
6216;BME280;3141;49.234;9.326;2023-10-09T01:00:42;100230.03;;;14.59;84.83
6216;BME280;3141;49.234;9.326;2023-10-09T01:01:27;100222.22;;;14.66;84.26
6216;BME280;3141;49.234;9.326;2023-10-09T01:02:22;100225.88;;;14.65;83.95
6216;BME280;3141;49.234;9.326;2023-10-09T01:03:18;100224.69;;;14.67;83.84
6216;BME280;3141;49.234;9.326;2023-10-09T01:04:03;100222.88;;;14.68;83.75
6216;BME280;3141;49.234;9.326;2023-10-09T01:04:59;100226.88;;;14.72;83.55
6216;BME280;3141;49.234;9.326;2023-10-09T01:05:43;100218.88;;;14.72;83.08
6216;BME280;3141;49.234;9.326;2023-10-09T01:06:33;100225.19;;;14.71;83.15
6216;BME280;3141;49.234;9.326;2023-10-09T01:07:16;100219.34;;;14.75;82.80
6216;BME280;3141;49.234;9.326;2023-10-09T01:08:03;100228.31;;;14.82;82.53
6216;BME280;3141;49.234;9.326;2023-10-09T01:08:58;100219.03;;;14.78;82.36
6216;BME280;3141;49.234;9.326;2023-10-09T01:09:51;100221.50;;;14.88;81.89
6216;BME280;3141;49.234;9.326;2023-10-09T01:10:46;100223.19;;;14.89;81.71
6216;BME280;3141;49.234;9.326;2023-10-09T01:11:54;100218.84;;;14.88;81.70
6216;BME280;3141;49.234;9.326;2023-10-09T01:12:43;100208.19;;;14.88;81.79
6216;BME280;3141;49.234;9.326;2023-10-09T01:13:26;100209.53;;;14.76;82.19
6216;BME280;3141;49.234;9.326;2023-10-09T01:14:21;100209.72;;;14.74;82.42
6216;BME280;3141;49.234;9.326;2023-10-09T01:15:05;100205.09;;;14.68;82.54
6216;BME280;3141;49.234;9.326;2023-10-09T01:15:49;100202.94;;;14.72;82.50
6216;BME280;3141;49.234;9.326;2023-10-09T01:16:34;100210.91;;;14.64;82.49
6216;BME280;3141;49.234;9.326;2023-10-09T01:17:16;100205.94;;;14.61;82.96
6216;BME280;3141;49.234;9.326;2023-10-09T01:18:17;100203.09;;;14.54;83.30
6216;BME280;3141;49.234;9.326;2023-10-09T01:19:01;100199.09;;;14.58;83.40
6216;BME280;3141;49.234;9.326;2023-10-09T01:19:48;100197.97;;;14.53;83.49
6216;BME280;3141;49.234;9.326;2023-10-09T01:20:31;100198.09;;;14.59;83.49
6216;BME280;3141;49.234;9.326;2023-10-09T01:21:23;100200.28;;;14.56;83.26
6216;BME280;3141;49.234;9.326;2023-10-09T01:22:07;100201.94;;;14.57;83.54
6216;BME280;3141;49.234;9.326;2023-10-09T01:22:55;100192.97;;;14.58;83.39
6216;BME280;3141;49.234;9.326;2023-10-09T01:23:40;100196.94;;;14.62;83.76
6216;BME280;3141;49.234;9.326;2023-10-09T01:24:29;100198.09;;;14.59;83.28
6216;BME280;3141;49.234;9.326;2023-10-09T01:25:14;100201.75;;;14.58;83.51
6216;BME280;3141;49.234;9.326;2023-10-09T01:25:56;100192.28;;;14.64;83.17
6216;BME280;3141;49.234;9.326;2023-10-09T01:26:39;100199.06;;;14.74;82.86
6216;BME280;3141;49.234;9.326;2023-10-09T01:27:26;100194.22;;;14.86;82.07
6216;BME280;3141;49.234;9.326;2023-10-09T01:28:14;100192.75;;;14.83;81.99
6216;BME280;3141;49.234;9.326;2023-10-09T01:28:58;100194.88;;;14.88;81.55
6216;BME280;3141;49.234;9.326;2023-10-09T01:29:42;100200.03;;;14.97;81.22
6216;BME280;3141;49.234;9.326;2023-10-09T01:30:25;100206.16;;;14.98;81.23
6216;BME280;3141;49.234;9.326;2023-10-09T01:31:08;100197.03;;;14.92;81.17
6216;BME280;3141;49.234;9.326;2023-10-09T01:31:52;100202.88;;;14.96;81.08
6216;BME280;3141;49.234;9.326;2023-10-09T01:32:38;100203.66;;;14.96;80.97
6216;BME280;3141;49.234;9.326;2023-10-09T01:33:20;100196.53;;;14.97;80.92
6216;BME280;3141;49.234;9.326;2023-10-09T01:34:06;100196.16;;;15.00;80.74
6216;BME280;3141;49.234;9.326;2023-10-09T01:34:52;100192.84;;;14.98;80.88
6216;BME280;3141;49.234;9.326;2023-10-09T01:35:36;100200.03;;;14.97;81.14
6216;BME280;3141;49.234;9.326;2023-10-09T01:36:20;100197.53;;;14.96;81.17
6216;BME280;3141;49.234;9.326;2023-10-09T01:37:18;100199.84;;;14.91;81.43
6216;BME280;3141;49.234;9.326;2023-10-09T01:38:00;100200.19;;;14.96;81.24
6216;BME280;3141;49.234;9.326;2023-10-09T01:38:43;100196.34;;;14.98;81.23
6216;BME280;3141;49.234;9.326;2023-10-09T01:39:26;100205.66;;;14.94;81.84
6216;BME280;3141;49.234;9.326;2023-10-09T01:40:10;100194.22;;;14.94;81.70
6216;BME280;3141;49.234;9.326;2023-10-09T01:41:17;100199.69;;;15.00;81.36
6216;BME280;3141;49.234;9.326;2023-10-09T01:42:02;100198.84;;;15.00;81.16
6216;BME280;3141;49.234;9.326;2023-10-09T01:42:47;100197.69;;;15.02;80.94
6216;BME280;3141;49.234;9.326;2023-10-09T01:43:30;100196.16;;;15.08;80.58
6216;BME280;3141;49.234;9.326;2023-10-09T01:44:16;100198.47;;;15.03;80.37
6216;BME280;3141;49.234;9.326;2023-10-09T01:44:58;100197.31;;;15.05;80.58
6216;BME280;3141;49.234;9.326;2023-10-09T01:45:51;100190.34;;;15.04;80.48
6216;BME280;3141;49.234;9.326;2023-10-09T01:46:34;100194.19;;;15.02;80.66
6216;BME280;3141;49.234;9.326;2023-10-09T01:47:16;100187.19;;;15.01;80.56
6216;BME280;3141;49.234;9.326;2023-10-09T01:48:00;100197.03;;;14.92;80.94
6216;BME280;3141;49.234;9.326;2023-10-09T01:48:47;100189.22;;;14.91;81.24
6216;BME280;3141;49.234;9.326;2023-10-09T01:49:30;100185.91;;;14.89;81.27
6216;BME280;3141;49.234;9.326;2023-10-09T01:50:13;100196.22;;;14.92;81.62
6216;BME280;3141;49.234;9.326;2023-10-09T01:51:01;100194.53;;;14.91;81.86
6216;BME280;3141;49.234;9.326;2023-10-09T01:51:47;100186.88;;;14.96;81.75
6216;BME280;3141;49.234;9.326;2023-10-09T01:52:31;100193.16;;;15.03;81.32
6216;BME280;3141;49.234;9.326;2023-10-09T01:53:13;100191.81;;;15.07;81.00
6216;BME280;3141;49.234;9.326;2023-10-09T01:53:59;100189.66;;;15.11;80.66
6216;BME280;3141;49.234;9.326;2023-10-09T01:54:43;100189.19;;;14.99;80.45
6216;BME280;3141;49.234;9.326;2023-10-09T01:55:32;100188.53;;;14.97;80.73
6216;BME280;3141;49.234;9.326;2023-10-09T01:56:19;100181.19;;;15.07;80.72
6216;BME280;3141;49.234;9.326;2023-10-09T01:57:06;100179.53;;;14.98;81.13
6216;BME280;3141;49.234;9.326;2023-10-09T01:57:51;100186.06;;;14.95;81.50
6216;BME280;3141;49.234;9.326;2023-10-09T01:58:34;100185.88;;;14.97;81.66
6216;BME280;3141;49.234;9.326;2023-10-09T01:59:16;100176.41;;;14.86;81.85
6216;BME280;3141;49.234;9.326;2023-10-09T01:59:58;100182.75;;;14.77;82.53
6216;BME280;3141;49.234;9.326;2023-10-09T02:00:41;100180.59;;;14.81;82.80
6216;BME280;3141;49.234;9.326;2023-10-09T02:01:31;100182.44;;;14.80;83.04
6216;BME280;3141;49.234;9.326;2023-10-09T02:02:16;100178.56;;;14.91;82.55
6216;BME280;3141;49.234;9.326;2023-10-09T02:03:08;100181.44;;;14.81;82.58
6216;BME280;3141;49.234;9.326;2023-10-09T02:03:56;100182.09;;;14.83;82.71
6216;BME280;3141;49.234;9.326;2023-10-09T02:04:45;100182.94;;;14.84;82.49
6216;BME280;3141;49.234;9.326;2023-10-09T02:05:28;100180.75;;;14.79;83.20
6216;BME280;3141;49.234;9.326;2023-10-09T02:06:15;100182.44;;;14.80;83.26
6216;BME280;3141;49.234;9.326;2023-10-09T02:07:12;100181.91;;;14.85;83.21
6216;BME280;3141;49.234;9.326;2023-10-09T02:07:54;100177.13;;;14.80;83.26
6216;BME280;3141;49.234;9.326;2023-10-09T02:08:38;100173.97;;;14.77;83.61
6216;BME280;3141;49.234;9.326;2023-10-09T02:09:20;100179.59;;;14.82;83.16
6216;BME280;3141;49.234;9.326;2023-10-09T02:10:12;100176.78;;;14.83;83.29
6216;BME280;3141;49.234;9.326;2023-10-09T02:11:07;100181.59;;;14.80;83.26
6216;BME280;3141;49.234;9.326;2023-10-09T02:11:56;100180.75;;;14.87;82.92
6216;BME280;3141;49.234;9.326;2023-10-09T02:12:39;100180.91;;;14.86;83.08
6216;BME280;3141;49.234;9.326;2023-10-09T02:13:23;100180.59;;;14.89;82.99
6216;BME280;3141;49.234;9.326;2023-10-09T02:14:17;100175.09;;;14.90;82.77
6216;BME280;3141;49.234;9.326;2023-10-09T02:15:03;100180.19;;;15.00;82.17
6216;BME280;3141;49.234;9.326;2023-10-09T02:15:57;100177.88;;;14.97;82.40
6216;BME280;3141;49.234;9.326;2023-10-09T02:17:08;100177.84;;;15.05;82.02
6216;BME280;3141;49.234;9.326;2023-10-09T02:17:51;100176.72;;;14.99;81.63
6216;BME280;3141;49.234;9.326;2023-10-09T02:18:34;100176.72;;;14.99;81.80
6216;BME280;3141;49.234;9.326;2023-10-09T02:19:16;100171.41;;;14.91;82.30
6216;BME280;3141;49.234;9.326;2023-10-09T02:20:12;100171.28;;;14.85;82.87
6216;BME280;3141;49.234;9.326;2023-10-09T02:21:41;100173.59;;;14.88;82.50
6216;BME280;3141;49.234;9.326;2023-10-09T02:22:24;100181.56;;;14.88;82.20
6216;BME280;3141;49.234;9.326;2023-10-09T02:23:08;100171.22;;;14.93;82.60
6216;BME280;3141;49.234;9.326;2023-10-09T02:23:55;100177.25;;;14.87;82.99
6216;BME280;3141;49.234;9.326;2023-10-09T02:24:43;100179.56;;;14.90;82.80
6216;BME280;3141;49.234;9.326;2023-10-09T02:25:33;100179.53;;;14.98;82.38
6216;BME280;3141;49.234;9.326;2023-10-09T02:26:25;100180.84;;;15.02;81.95
6216;BME280;3141;49.234;9.326;2023-10-09T02:27:09;100177.34;;;15.10;81.75
6216;BME280;3141;49.234;9.326;2023-10-09T02:27:53;100184.31;;;15.11;81.76
6216;BME280;3141;49.234;9.326;2023-10-09T02:28:35;100188.19;;;15.08;82.01
6216;BME280;3141;49.234;9.326;2023-10-09T02:29:18;100179.47;;;15.14;81.79
6216;BME280;3141;49.234;9.326;2023-10-09T02:30:00;100173.66;;;15.11;82.01
6216;BME280;3141;49.234;9.326;2023-10-09T02:30:50;100184.69;;;15.07;82.44
6216;BME280;3141;49.234;9.326;2023-10-09T02:31:33;100177.34;;;15.10;82.31
6216;BME280;3141;49.234;9.326;2023-10-09T02:32:28;100178.03;;;15.03;82.93
6216;BME280;3141;49.234;9.326;2023-10-09T02:33:12;100179.84;;;15.03;82.79
6216;BME280;3141;49.234;9.326;2023-10-09T02:33:55;100179.53;;;15.06;82.63
6216;BME280;3141;49.234;9.326;2023-10-09T02:34:37;100171.53;;;14.98;83.26
6216;BME280;3141;49.234;9.326;2023-10-09T02:35:20;100177.84;;;15.05;83.15
6216;BME280;3141;49.234;9.326;2023-10-09T02:36:21;100171.53;;;15.06;83.17
6216;BME280;3141;49.234;9.326;2023-10-09T02:37:04;100174.88;;;15.00;83.33
6216;BME280;3141;49.234;9.326;2023-10-09T02:37:57;100171.06;;;14.94;83.68
6216;BME280;3141;49.234;9.326;2023-10-09T02:38:40;100171.41;;;14.99;83.77
6216;BME280;3141;49.234;9.326;2023-10-09T02:39:24;100178.56;;;14.99;83.73
6216;BME280;3141;49.234;9.326;2023-10-09T02:40:10;100178.22;;;14.94;84.07
6216;BME280;3141;49.234;9.326;2023-10-09T02:40:57;100170.22;;;15.02;83.39
6216;BME280;3141;49.234;9.326;2023-10-09T02:42:02;100169.22;;;14.95;83.61
6216;BME280;3141;49.234;9.326;2023-10-09T02:42:56;100168.09;;;14.89;84.32
6216;BME280;3141;49.234;9.326;2023-10-09T02:43:40;100167.91;;;14.91;84.24
6216;BME280;3141;49.234;9.326;2023-10-09T02:44:27;100170.22;;;15.02;83.49
6216;BME280;3141;49.234;9.326;2023-10-09T02:45:17;100164.56;;;14.97;84.01
6216;BME280;3141;49.234;9.326;2023-10-09T02:46:01;100167.03;;;15.06;83.40
6216;BME280;3141;49.234;9.326;2023-10-09T02:46:56;100169.22;;;14.95;84.21
6216;BME280;3141;49.234;9.326;2023-10-09T02:47:40;100159.28;;;14.89;84.50
6216;BME280;3141;49.234;9.326;2023-10-09T02:48:23;100163.72;;;14.96;84.07
6216;BME280;3141;49.234;9.326;2023-10-09T02:49:08;100158.72;;;15.01;84.20
6216;BME280;3141;49.234;9.326;2023-10-09T02:49:52;100164.53;;;15.05;83.88
6216;BME280;3141;49.234;9.326;2023-10-09T02:50:34;100165.19;;;15.15;82.96
6216;BME280;3141;49.234;9.326;2023-10-09T02:51:21;100160.66;;;15.16;82.69
6216;BME280;3141;49.234;9.326;2023-10-09T02:52:14;100160.47;;;15.17;82.56
6216;BME280;3141;49.234;9.326;2023-10-09T02:53:00;100155.50;;;15.14;82.42
6216;BME280;3141;49.234;9.326;2023-10-09T02:53:50;100159.16;;;15.21;81.81
6216;BME280;3141;49.234;9.326;2023-10-09T02:54:33;100156.03;;;15.10;82.76
6216;BME280;3141;49.234;9.326;2023-10-09T02:55:23;100158.22;;;14.98;83.19
6216;BME280;3141;49.234;9.326;2023-10-09T02:56:07;100159.88;;;15.07;83.11
6216;BME280;3141;49.234;9.326;2023-10-09T02:56:56;100159.59;;;14.94;83.66
6216;BME280;3141;49.234;9.326;2023-10-09T02:57:49;100155.25;;;14.93;84.05
6216;BME280;3141;49.234;9.326;2023-10-09T02:58:34;100151.94;;;14.99;83.62
6216;BME280;3141;49.234;9.326;2023-10-09T02:59:19;100156.91;;;15.02;83.43
6216;BME280;3141;49.234;9.326;2023-10-09T03:00:04;100145.22;;;15.11;83.17
6216;BME280;3141;49.234;9.326;2023-10-09T03:01:00;100147.22;;;15.09;83.04
6216;BME280;3141;49.234;9.326;2023-10-09T03:01:43;100148.19;;;15.16;82.55
6216;BME280;3141;49.234;9.326;2023-10-09T03:02:25;100149.66;;;15.19;82.52
6216;BME280;3141;49.234;9.326;2023-10-09T03:03:08;100152.19;;;15.12;83.12
6216;BME280;3141;49.234;9.326;2023-10-09T03:03:50;100142.38;;;15.13;82.98
6216;BME280;3141;49.234;9.326;2023-10-09T03:04:33;100145.53;;;15.16;82.61
6216;BME280;3141;49.234;9.326;2023-10-09T03:05:16;100150.00;;;15.16;82.88
6216;BME280;3141;49.234;9.326;2023-10-09T03:05:58;100145.53;;;15.16;82.93
6216;BME280;3141;49.234;9.326;2023-10-09T03:06:41;100140.84;;;15.18;83.08
6216;BME280;3141;49.234;9.326;2023-10-09T03:07:33;100144.66;;;15.24;82.68
6216;BME280;3141;49.234;9.326;2023-10-09T03:08:16;100143.69;;;15.17;83.15
6216;BME280;3141;49.234;9.326;2023-10-09T03:09:01;100142.69;;;15.18;82.73
6216;BME280;3141;49.234;9.326;2023-10-09T03:09:58;100143.53;;;15.18;82.97
6216;BME280;3141;49.234;9.326;2023-10-09T03:10:40;100146.84;;;15.20;82.62
6216;BME280;3141;49.234;9.326;2023-10-09T03:11:23;100140.84;;;15.18;83.03
6216;BME280;3141;49.234;9.326;2023-10-09T03:12:05;100141.03;;;15.17;82.80
6216;BME280;3141;49.234;9.326;2023-10-09T03:12:52;100136.38;;;15.11;83.44
6216;BME280;3141;49.234;9.326;2023-10-09T03:13:35;100142.56;;;15.11;83.69
6216;BME280;3141;49.234;9.326;2023-10-09T03:14:17;100137.88;;;15.13;83.86
6216;BME280;3141;49.234;9.326;2023-10-09T03:15:04;100139.47;;;15.22;82.87
6216;BME280;3141;49.234;9.326;2023-10-09T03:15:48;100144.00;;;15.22;83.03
6216;BME280;3141;49.234;9.326;2023-10-09T03:16:30;100144.00;;;15.22;82.89
6216;BME280;3141;49.234;9.326;2023-10-09T03:17:12;100145.53;;;15.16;83.48
6216;BME280;3141;49.234;9.326;2023-10-09T03:17:55;100142.50;;;15.19;82.97
6216;BME280;3141;49.234;9.326;2023-10-09T03:18:37;100140.50;;;15.21;82.74
6216;BME280;3141;49.234;9.326;2023-10-09T03:19:19;100138.50;;;15.23;82.71
6216;BME280;3141;49.234;9.326;2023-10-09T03:20:06;100141.16;;;15.23;82.74
6216;BME280;3141;49.234;9.326;2023-10-09T03:20:54;100143.00;;;15.23;82.71
6216;BME280;3141;49.234;9.326;2023-10-09T03:21:38;100140.97;;;15.25;82.45
6216;BME280;3141;49.234;9.326;2023-10-09T03:22:20;100141.16;;;15.23;83.04
6216;BME280;3141;49.234;9.326;2023-10-09T03:23:03;100141.66;;;15.27;82.75
6216;BME280;3141;49.234;9.326;2023-10-09T03:23:47;100143.16;;;15.21;83.39
6216;BME280;3141;49.234;9.326;2023-10-09T03:24:33;100144.66;;;15.24;83.15
6216;BME280;3141;49.234;9.326;2023-10-09T03:25:15;100144.50;;;15.25;82.77
6216;BME280;3141;49.234;9.326;2023-10-09T03:25:59;100146.97;;;15.27;82.92
6216;BME280;3141;49.234;9.326;2023-10-09T03:26:41;100143.81;;;15.23;83.11
6216;BME280;3141;49.234;9.326;2023-10-09T03:27:27;100146.13;;;15.26;82.65
6216;BME280;3141;49.234;9.326;2023-10-09T03:28:09;100142.63;;;15.26;82.99
6216;BME280;3141;49.234;9.326;2023-10-09T03:28:52;100144.97;;;15.29;82.75
6216;BME280;3141;49.234;9.326;2023-10-09T03:29:37;100151.78;;;15.31;82.96
6216;BME280;3141;49.234;9.326;2023-10-09T03:30:19;100142.13;;;15.30;82.61
6216;BME280;3141;49.234;9.326;2023-10-09T03:31:05;100144.78;;;15.30;82.90
6216;BME280;3141;49.234;9.326;2023-10-09T03:31:49;100142.81;;;15.24;82.91
6216;BME280;3141;49.234;9.326;2023-10-09T03:32:33;100151.94;;;15.30;82.75
6216;BME280;3141;49.234;9.326;2023-10-09T03:33:17;100146.25;;;15.33;82.51
6216;BME280;3141;49.234;9.326;2023-10-09T03:34:00;100149.75;;;15.33;82.55
6216;BME280;3141;49.234;9.326;2023-10-09T03:34:42;100151.41;;;15.34;82.70
6216;BME280;3141;49.234;9.326;2023-10-09T03:35:25;100149.09;;;15.31;82.66
6216;BME280;3141;49.234;9.326;2023-10-09T03:36:09;100151.28;;;15.28;83.07
6216;BME280;3141;49.234;9.326;2023-10-09T03:36:52;100153.28;;;15.26;83.08
6216;BME280;3141;49.234;9.326;2023-10-09T03:37:45;100154.19;;;15.18;83.72
6216;BME280;3141;49.234;9.326;2023-10-09T03:38:28;100157.81;;;15.17;84.20
6216;BME280;3141;49.234;9.326;2023-10-09T03:39:16;100160.84;;;15.14;84.23
6216;BME280;3141;49.234;9.326;2023-10-09T03:40:18;100156.19;;;15.16;83.78
6216;BME280;3141;49.234;9.326;2023-10-09T03:41:03;100158.47;;;15.19;83.82
6216;BME280;3141;49.234;9.326;2023-10-09T03:41:48;100150.50;;;15.19;83.96
6216;BME280;3141;49.234;9.326;2023-10-09T03:42:32;100160.47;;;15.17;83.93
6216;BME280;3141;49.234;9.326;2023-10-09T03:43:15;100153.56;;;15.08;84.51
6216;BME280;3141;49.234;9.326;2023-10-09T03:43:58;100156.03;;;15.10;84.50
6216;BME280;3141;49.234;9.326;2023-10-09T03:44:41;100153.69;;;15.15;84.30
6216;BME280;3141;49.234;9.326;2023-10-09T03:45:30;100163.38;;;15.07;84.06
6216;BME280;3141;49.234;9.326;2023-10-09T03:46:17;100156.53;;;15.05;84.49
6216;BME280;3141;49.234;9.326;2023-10-09T03:47:03;100151.88;;;15.07;84.54
6216;BME280;3141;49.234;9.326;2023-10-09T03:47:47;100157.22;;;15.07;84.31
6216;BME280;3141;49.234;9.326;2023-10-09T03:48:31;100161.56;;;15.08;83.57
6216;BME280;3141;49.234;9.326;2023-10-09T03:49:19;100155.69;;;15.13;83.41
6216;BME280;3141;49.234;9.326;2023-10-09T03:50:06;100158.41;;;15.04;84.11
6216;BME280;3141;49.234;9.326;2023-10-09T03:51:07;100165.03;;;15.08;83.92
6216;BME280;3141;49.234;9.326;2023-10-09T03:52:03;100163.72;;;15.04;84.12
6216;BME280;3141;49.234;9.326;2023-10-09T03:52:45;100163.72;;;15.04;83.84
6216;BME280;3141;49.234;9.326;2023-10-09T03:53:27;100163.56;;;15.06;83.85
6216;BME280;3141;49.234;9.326;2023-10-09T03:54:12;100154.25;;;15.02;84.16
6216;BME280;3141;49.234;9.326;2023-10-09T03:54:55;100159.56;;;15.02;84.26
6216;BME280;3141;49.234;9.326;2023-10-09T03:55:38;100167.84;;;15.07;84.14
6216;BME280;3141;49.234;9.326;2023-10-09T03:56:21;100169.84;;;15.05;84.56
6216;BME280;3141;49.234;9.326;2023-10-09T03:57:04;100160.03;;;15.05;84.29
6216;BME280;3141;49.234;9.326;2023-10-09T03:57:48;100161.88;;;15.05;84.37
6216;BME280;3141;49.234;9.326;2023-10-09T03:58:31;100157.91;;;15.01;83.86
6216;BME280;3141;49.234;9.326;2023-10-09T03:59:18;100151.75;;;15.00;84.18
6216;BME280;3141;49.234;9.326;2023-10-09T04:00:04;100156.59;;;14.97;84.64
6216;BME280;3141;49.234;9.326;2023-10-09T04:01:28;100154.00;;;14.73;86.18
6216;BME280;3141;49.234;9.326;2023-10-09T04:02:22;100161.53;;;14.61;86.95
6216;BME280;3141;49.234;9.326;2023-10-09T04:03:05;100163.00;;;14.64;87.22
6216;BME280;3141;49.234;9.326;2023-10-09T04:03:48;100165.31;;;14.75;86.87
6216;BME280;3141;49.234;9.326;2023-10-09T04:04:30;100170.13;;;14.79;86.03
6216;BME280;3141;49.234;9.326;2023-10-09T04:05:15;100164.94;;;14.86;85.44
6216;BME280;3141;49.234;9.326;2023-10-09T04:05:58;100173.22;;;14.91;84.83
6216;BME280;3141;49.234;9.326;2023-10-09T04:06:42;100175.25;;;14.89;84.38
6216;BME280;3141;49.234;9.326;2023-10-09T04:07:24;100171.22;;;14.93;84.61
6216;BME280;3141;49.234;9.326;2023-10-09T04:08:11;100171.94;;;14.87;84.66
6216;BME280;3141;49.234;9.326;2023-10-09T04:09:04;100167.94;;;14.83;84.67
6216;BME280;3141;49.234;9.326;2023-10-09T04:10:09;100161.53;;;14.61;85.58
6216;BME280;3141;49.234;9.326;2023-10-09T04:11:10;100167.00;;;14.52;86.37
6216;BME280;3141;49.234;9.326;2023-10-09T04:11:58;100164.19;;;14.53;86.11
6216;BME280;3141;49.234;9.326;2023-10-09T04:12:52;100157.72;;;14.56;85.77